Time;durP1;ratioP1;P1;durP2;ratioP2;P2;SDS_P1;SDS_P2;PMS_P1;PMS_P2;Temp;Humidity;BMP_temperature;BMP_pressure;BME280_temperature;BME280_humidity;BME280_pressure;Samples;Min_cycle;Max_cycle;Signal;HPM_P1;HPM_P2
2023/01/12 00:01:31;;;;;;;13.40;7.90;;;;;;;-5.29;80.83;99505.83;105909;1256;62544;-25
2023/01/12 00:03:58;;;;;;;15.60;8.00;;;;;;;-5.51;81.02;99512.30;105672;1253;74936;-25
2023/01/12 00:06:25;;;;;;;17.30;8.10;;;;;;;-5.72;81.66;99511.95;105744;1250;76836;-25
2023/01/12 00:08:52;;;;;;;19.70;8.70;;;;;;;-5.91;82.34;99515.80;105822;1250;75202;-26
2023/01/12 00:11:19;;;;;;;17.10;8.10;;;;;;;-5.92;82.93;99519.03;105770;1252;64466;-25
2023/01/12 00:13:47;;;;;;;18.50;8.90;;;;;;;-5.32;82.16;99523.64;105900;1256;63001;-25
2023/01/12 00:19:16;;;;;;;12.30;6.00;;;;;;;-5.16;80.73;99520.10;105725;1251;76447;-25
2023/01/12 00:24:29;;;;;;;17.00;7.30;;;;;;;-5.63;81.75;99512.38;105647;1259;61162;-28
2023/01/12 00:26:57;;;;;;;10.10;5.30;;;;;;;-5.80;82.07;99521.48;105437;1252;62566;-27
2023/01/12 00:29:24;;;;;;;21.00;6.70;;;;;;;-5.40;82.33;99515.08;105540;1259;76197;-26
2023/01/12 00:31:52;;;;;;;13.50;6.80;;;;;;;-5.07;81.10;99517.81;105726;1257;76755;-27
2023/01/12 00:34:19;;;;;;;12.30;5.80;;;;;;;-5.10;80.79;99520.73;105861;1256;75148;-27
2023/01/12 00:36:46;;;;;;;11.70;6.80;;;;;;;-5.25;81.04;99519.51;105915;1250;61294;-26
2023/01/12 00:39:13;;;;;;;17.10;5.50;;;;;;;-5.47;81.46;99517.84;105861;1251;62920;-26
2023/01/12 00:47:12;;;;;;;17.70;6.50;;;;;;;-5.22;82.35;99514.74;105700;1253;75232;-26
2023/01/12 00:49:42;;;;;;;17.00;6.50;;;;;;;-4.70;80.67;99525.40;105745;1251;61068;-26
2023/01/12 00:52:11;;;;;;;18.50;7.50;;;;;;;-4.75;79.36;99516.30;105780;1250;61792;-26
2023/01/12 00:54:54;;;;;;;12.00;6.00;;;;;;;-5.08;79.49;99508.34;105692;1256;76139;-26
2023/01/12 00:57:21;;;;;;;17.50;8.60;;;;;;;-5.37;80.35;99510.33;105706;1251;76726;-26
2023/01/12 00:59:49;;;;;;;15.90;9.50;;;;;;;-5.64;80.84;99506.30;105892;1250;73944;-26
2023/01/12 01:02:16;;;;;;;9.70;5.90;;;;;;;-5.89;82.04;99499.05;105860;1257;63141;-26
2023/01/12 01:04:43;;;;;;;15.80;7.30;;;;;;;-5.75;82.59;99500.30;105921;1251;62203;-26
2023/01/12 01:07:12;;;;;;;14.30;8.00;;;;;;;-5.13;81.74;99503.48;105630;1250;76131;-28
2023/01/12 01:09:39;;;;;;;15.40;8.20;;;;;;;-4.97;80.52;99498.41;105680;1257;76489;-26
2023/01/12 01:12:06;;;;;;;14.90;8.10;;;;;;;-5.15;79.85;99489.29;105581;1254;74786;-26
2023/01/12 01:14:33;;;;;;;20.80;8.60;;;;;;;-5.35;80.29;99483.05;105725;1256;62150;-26
2023/01/12 01:17:00;;;;;;;21.20;9.20;;;;;;;-5.62;81.18;99480.41;105669;1256;62788;-26
2023/01/12 01:19:27;;;;;;;10.20;6.20;;;;;;;-5.86;81.76;99485.49;105599;1251;76323;-26
2023/01/12 01:21:54;;;;;;;15.90;7.60;;;;;;;-5.81;82.40;99485.80;105799;1256;75820;-26
2023/01/12 01:24:21;;;;;;;16.60;7.80;;;;;;;-5.15;81.17;99487.75;105916;1250;74288;-26
2023/01/12 01:26:49;;;;;;;18.20;8.90;;;;;;;-4.87;80.01;99480.35;105908;1253;61205;-26
2023/01/12 01:29:16;;;;;;;11.80;7.60;;;;;;;-4.97;79.64;99481.65;105736;1250;61859;-26
2023/01/12 01:31:42;;;;;;;19.10;10.10;;;;;;;-5.27;79.81;99472.48;105732;1250;76295;-26
2023/01/12 01:34:09;;;;;;;12.20;7.90;;;;;;;-5.56;80.58;99472.91;105729;1251;74535;-26
2023/01/12 01:36:36;;;;;;;14.80;6.20;;;;;;;-5.82;81.49;99476.00;105698;1256;73607;-26
2023/01/12 01:39:04;;;;;;;19.10;8.90;;;;;;;-5.77;82.28;99481.37;105713;1256;64453;-26
2023/01/12 01:41:31;;;;;;;22.00;10.00;;;;;;;-5.29;81.44;99476.72;105737;1251;61696;-25
2023/01/12 01:44:00;;;;;;;15.90;8.20;;;;;;;-5.21;80.86;99474.11;105672;1251;76503;-24
2023/01/12 01:46:49;;;;;;;10.00;6.30;;;;;;;-5.30;80.53;99474.02;105617;1251;76676;-24
2023/01/12 01:49:25;;;;;;;15.10;8.10;;;;;;;-5.55;80.80;99479.67;105681;1257;75236;-25
2023/01/12 01:51:53;;;;;;;12.80;7.40;;;;;;;-5.78;81.48;99479.19;105874;1256;61765;-26
2023/01/12 01:54:20;;;;;;;18.50;9.30;;;;;;;-5.95;82.28;99475.77;105697;1250;61141;-24
2023/01/12 01:56:47;;;;;;;14.00;7.60;;;;;;;-6.02;82.97;99481.58;105909;1251;76284;-25
2023/01/12 01:59:16;;;;;;;18.40;9.40;;;;;;;-5.47;82.29;99482.46;105740;1258;76774;-25
2023/01/12 02:01:43;;;;;;;16.40;10.10;;;;;;;-5.10;81.13;99473.48;105668;1259;73287;-27
2023/01/12 02:04:11;;;;;;;14.30;8.70;;;;;;;-5.22;80.59;99470.39;105857;1254;62022;-25
2023/01/12 02:06:38;;;;;;;13.60;7.70;;;;;;;-5.44;81.08;99470.42;105739;1257;62872;-25
2023/01/12 02:09:14;;;;;;;19.70;8.20;;;;;;;-5.63;81.63;99464.85;105897;1250;76317;-25
2023/01/12 02:17:40;;;;;;;12.60;6.70;;;;;;;-5.19;81.64;99454.44;105734;1257;62163;-25
2023/01/12 02:20:25;;;;;;;17.20;8.90;;;;;;;-5.12;80.67;99451.50;105678;1250;63074;-26
2023/01/12 02:23:19;;;;;;;19.70;8.30;;;;;;;-5.30;80.89;99442.55;105920;1256;76206;-25
2023/01/12 02:26:14;;;;;;;13.90;8.00;;;;;;;-5.56;81.16;99441.60;105928;1250;74810;-25
2023/01/12 02:29:00;;;;;;;12.40;7.20;;;;;;;-5.78;81.79;99445.54;105713;1259;75039;-25
2023/01/12 02:33:22;;;;;;;17.90;9.70;;;;;;;-5.08;81.53;99449.59;102624;1293;600303;-26
2023/01/12 02:36:02;;;;;;;12.10;6.50;;;;;;;-4.88;80.19;99444.11;104825;1266;62194;-26
2023/01/12 02:38:47;;;;;;;18.30;9.30;;;;;;;-5.03;80.22;99442.42;104796;1267;61492;-26
2023/01/12 02:42:39;;;;;;;17.80;10.10;;;;;;;-5.32;80.48;99435.95;104771;1267;74814;-26
2023/01/12 02:44:08;;;;;;;19.20;8.10;;;;;;;-5.63;81.34;99431.36;104745;1267;76664;-25
2023/01/12 02:46:35;;;;;;;17.00;7.90;;;;;;;-5.68;82.08;99429.71;103827;1264;1514449;-26
2023/01/12 02:49:06;;;;;;;12.70;7.20;;;;;;;-5.18;81.90;99429.38;104838;1264;62056;-26
2023/01/12 02:51:38;;;;;;;16.70;7.60;;;;;;;-5.01;80.92;99430.88;105473;1257;61099;-26
2023/01/12 02:54:09;;;;;;;13.60;8.20;;;;;;;-5.14;80.66;99430.67;105441;1262;74670;-27
2023/01/12 02:57:00;;;;;;;21.90;6.20;;;;;;;-5.37;81.21;99437.20;105296;1257;76803;-28
2023/01/12 02:59:29;;;;;;;10.90;5.50;;;;;;;-5.65;82.07;99431.38;105298;1257;74154;-30
2023/01/12 03:01:59;;;;;;;18.30;6.90;;;;;;;-5.57;82.69;99429.11;105088;1265;64579;-28
2023/01/12 03:04:27;;;;;;;10.70;5.30;;;;;;;-4.98;81.66;99425.09;105353;1257;62481;-28
2023/01/12 03:06:57;;;;;;;12.50;7.10;;;;;;;-4.75;80.80;99425.83;105382;1257;75192;-27
2023/01/12 03:09:45;;;;;;;9.80;4.50;;;;;;;-4.84;80.27;99431.19;105462;1262;77048;-24
2023/01/12 03:12:13;;;;;;;13.20;8.30;;;;;;;-5.16;80.66;99424.45;105394;1257;75256;-26
2023/01/12 03:14:43;;;;;;;11.30;7.10;;;;;;;-5.46;81.32;99428.48;105312;1258;62079;-25
2023/01/12 03:17:13;;;;;;;8.40;5.10;;;;;;;-5.67;82.37;99430.20;105295;1257;61464;-25
2023/01/12 03:19:40;;;;;;;14.70;7.30;;;;;;;-5.44;82.44;99421.86;105273;1262;74463;-25
2023/01/12 03:22:09;;;;;;;12.80;6.30;;;;;;;-4.84;81.42;99424.75;105183;1257;76793;-25
2023/01/12 03:24:41;;;;;;;16.40;6.10;;;;;;;-4.66;80.38;99423.67;105347;1263;75193;-25
2023/01/12 03:27:11;;;;;;;12.10;6.00;;;;;;;-4.85;80.35;99420.36;105054;1265;61049;-25
2023/01/12 03:29:42;;;;;;;13.00;7.00;;;;;;;-5.09;80.77;99416.75;105274;1257;61542;-25
2023/01/12 03:32:09;;;;;;;10.40;5.40;;;;;;;-5.35;81.24;99419.23;105260;1264;74123;-25
2023/01/12 03:34:36;;;;;;;10.40;4.90;;;;;;;-5.53;82.31;99415.70;105519;1259;76681;-25
2023/01/12 03:37:14;;;;;;;11.00;5.70;;;;;;;-5.13;82.05;99412.73;105332;1264;72612;-25
2023/01/12 03:40:00;;;;;;;11.40;6.20;;;;;;;-4.85;81.21;99417.46;105300;1257;61862;-25
2023/01/12 03:42:36;;;;;;;7.30;5.00;;;;;;;-4.97;80.81;99425.41;105526;1257;61724;-25
2023/01/12 03:45:08;;;;;;;8.30;4.50;;;;;;;-5.22;81.11;99420.95;105305;1263;75377;-25
2023/01/12 03:47:35;;;;;;;8.40;5.20;;;;;;;-5.41;81.75;99420.31;105421;1257;76504;-25
2023/01/12 03:50:05;;;;;;;12.10;5.00;;;;;;;-5.53;82.34;99417.55;105330;1258;75044;-25
2023/01/12 03:52:34;;;;;;;11.70;6.40;;;;;;;-5.01;82.25;99423.09;105192;1264;61798;-25
2023/01/12 03:55:01;;;;;;;10.10;5.70;;;;;;;-4.67;80.96;99418.27;105482;1257;62731;-25
2023/01/12 03:57:28;;;;;;;12.30;6.30;;;;;;;-4.75;80.49;99420.57;105264;1264;75475;-25
2023/01/12 03:59:55;;;;;;;7.30;4.70;;;;;;;-5.01;80.66;99417.00;105531;1257;75761;-25
2023/01/12 04:02:22;;;;;;;7.50;5.10;;;;;;;-5.21;81.05;99414.17;105537;1262;75332;-25
2023/01/12 04:04:50;;;;;;;9.60;6.30;;;;;;;-5.39;81.99;99410.99;105376;1260;62581;-25
2023/01/12 04:07:17;;;;;;;8.50;5.30;;;;;;;-5.50;82.49;99409.41;105548;1257;61565;-25
2023/01/12 04:09:44;;;;;;;9.10;4.60;;;;;;;-4.94;82.20;99412.68;105566;1261;75299;-25
2023/01/12 04:12:11;;;;;;;13.00;6.30;;;;;;;-4.67;81.08;99410.65;105521;1261;77066;-25
2023/01/12 04:14:42;;;;;;;13.20;5.70;;;;;;;-4.76;80.83;99408.39;105245;1257;74203;-25
2023/01/12 04:17:13;;;;;;;11.20;5.50;;;;;;;-5.01;81.07;99405.83;105128;1257;61174;-25
2023/01/12 04:19:40;;;;;;;11.10;5.90;;;;;;;-5.20;81.67;99402.14;105409;1259;62835;-25
2023/01/12 04:24:53;;;;;;;9.20;5.70;;;;;;;-5.17;82.70;99395.51;105511;1257;76747;-25
2023/01/12 04:27:19;;;;;;;11.90;6.10;;;;;;;-4.56;80.87;99397.79;105528;1257;75232;-26
2023/01/12 04:29:46;;;;;;;8.80;5.80;;;;;;;-4.47;79.81;99399.55;105526;1257;61924;-25
2023/01/12 04:32:13;;;;;;;11.60;5.40;;;;;;;-4.61;80.07;99397.84;105534;1257;61819;-25
2023/01/12 04:34:40;;;;;;;11.70;6.70;;;;;;;-4.81;80.16;99395.08;105508;1261;74216;-25
2023/01/12 04:37:07;;;;;;;9.60;4.60;;;;;;;-5.07;80.87;99401.66;105536;1257;76706;-25
2023/01/12 04:39:34;;;;;;;9.20;4.70;;;;;;;-5.29;81.30;99396.65;105656;1254;74120;-25
2023/01/12 04:42:01;;;;;;;14.20;5.70;;;;;;;-5.41;82.10;99401.02;105666;1259;64459;-25
2023/01/12 04:44:28;;;;;;;9.50;5.00;;;;;;;-4.93;81.94;99407.07;105678;1259;62797;-25
2023/01/12 04:46:55;;;;;;;11.80;5.80;;;;;;;-4.46;80.58;99405.29;105680;1254;75298;-25
2023/01/12 04:49:22;;;;;;;11.30;5.70;;;;;;;-4.42;79.91;99402.85;105693;1257;76929;-25
2023/01/12 04:51:49;;;;;;;13.60;7.70;;;;;;;-4.61;80.05;99402.92;105600;1254;75287;-25
2023/01/12 04:54:16;;;;;;;8.10;5.00;;;;;;;-4.92;80.70;99402.83;105634;1253;61190;-26
2023/01/12 04:56:43;;;;;;;9.70;6.10;;;;;;;-5.13;81.56;99407.14;105547;1254;62111;-25
2023/01/12 04:59:10;;;;;;;8.50;5.40;;;;;;;-5.30;82.14;99407.68;105566;1254;75242;-25
2023/01/12 05:01:37;;;;;;;8.70;4.60;;;;;;;-5.04;82.53;99410.76;105552;1254;74624;-25
2023/01/12 05:04:05;;;;;;;12.20;5.20;;;;;;;-4.41;81.18;99406.73;105664;1255;75705;-25
2023/01/12 05:06:33;;;;;;;12.90;6.60;;;;;;;-4.28;80.05;99403.67;105682;1254;61167;-25
2023/01/12 05:11:46;;;;;;;8.60;4.60;;;;;;;-4.69;80.39;99411.69;105604;1259;74141;-25
2023/01/12 05:14:13;;;;;;;11.20;6.20;;;;;;;-4.90;80.98;99409.59;105614;1259;75596;-25
2023/01/12 05:16:40;;;;;;;10.70;6.10;;;;;;;-5.06;81.53;99412.66;105466;1254;74090;-25
2023/01/12 05:19:07;;;;;;;10.70;6.20;;;;;;;-5.23;81.65;99414.19;105540;1254;62977;-25
2023/01/12 05:21:35;;;;;;;9.80;5.30;;;;;;;-5.18;82.34;99420.23;105582;1254;61625;-25
2023/01/12 05:24:02;;;;;;;12.90;5.50;;;;;;;-4.58;82.03;99413.06;105664;1258;75166;-25
2023/01/12 05:26:29;;;;;;;9.60;5.20;;;;;;;-4.31;80.83;99418.79;105667;1254;75455;-29
2023/01/12 05:28:56;;;;;;;10.00;5.60;;;;;;;-4.44;80.41;99424.73;105692;1257;74891;-26
2023/01/12 05:31:23;;;;;;;12.00;7.00;;;;;;;-4.68;80.91;99421.84;105538;1254;61743;-26
2023/01/12 05:33:49;;;;;;;8.90;5.20;;;;;;;-4.99;81.87;99425.11;105440;1253;61060;-27
2023/01/12 05:36:16;;;;;;;5.10;3.40;;;;;;;-5.22;82.38;99422.64;105615;1259;74173;-28
2023/01/12 05:38:43;;;;;;;10.40;4.70;;;;;;;-4.86;82.76;99430.36;105542;1253;74874;-26
2023/01/12 05:41:13;;;;;;;9.00;5.40;;;;;;;-4.53;81.56;99431.80;105516;1254;74286;-26
2023/01/12 05:43:50;;;;;;;12.00;7.10;;;;;;;-4.57;81.24;99437.80;105663;1259;61166;-26
2023/01/12 05:46:24;;;;;;;9.10;4.80;;;;;;;-4.83;81.75;99442.17;105678;1254;61944;-26
2023/01/12 05:48:52;;;;;;;11.30;5.60;;;;;;;-5.06;82.51;99438.73;105709;1254;73913;-26
2023/01/12 05:51:19;;;;;;;5.10;3.00;;;;;;;-5.23;83.32;99442.13;105584;1254;75697;-26
2023/01/12 05:53:46;;;;;;;10.40;6.50;;;;;;;-4.95;83.38;99440.96;105638;1257;73898;-26
2023/01/12 05:56:18;;;;;;;10.10;5.20;;;;;;;-4.41;81.84;99430.13;105638;1259;61099;-26
2023/01/12 05:59:12;;;;;;;7.70;4.30;;;;;;;-4.38;81.34;99432.94;105481;1254;61472;-26
2023/01/12 06:01:40;;;;;;;11.30;5.70;;;;;;;-4.55;81.23;99435.05;105672;1254;75482;-26
2023/01/12 06:04:07;;;;;;;9.30;5.30;;;;;;;-4.75;81.86;99436.33;105706;1258;75795;-26
2023/01/12 06:06:33;;;;;;;11.70;6.70;;;;;;;-4.99;82.68;99442.55;105571;1259;74700;-26
2023/01/12 06:09:01;;;;;;;9.40;6.20;;;;;;;-5.07;83.27;99441.96;105663;1254;61383;-26
2023/01/12 06:14:13;;;;;;;8.10;5.40;;;;;;;-4.51;82.02;99444.66;105631;1254;75523;-26
2023/01/12 06:16:41;;;;;;;7.10;4.50;;;;;;;-4.66;82.15;99449.77;105631;1258;75524;-26
2023/01/12 06:19:09;;;;;;;7.80;4.90;;;;;;;-4.85;82.56;99456.10;105689;1259;75202;-26
2023/01/12 06:21:39;;;;;;;8.10;4.40;;;;;;;-5.07;83.30;99461.60;105444;1254;61269;-26
2023/01/12 06:24:06;;;;;;;9.20;4.60;;;;;;;-4.93;83.42;99458.90;105679;1254;61844;-26
2023/01/12 06:26:33;;;;;;;11.80;5.20;;;;;;;-4.41;82.49;99458.42;105557;1254;75218;-26
2023/01/12 06:29:02;;;;;;;8.40;4.70;;;;;;;-4.32;81.59;99448.80;105542;1259;77240;-26
2023/01/12 06:31:29;;;;;;;9.00;5.50;;;;;;;-4.46;81.57;99450.01;105680;1254;74168;-26
2023/01/12 06:33:57;;;;;;;12.40;5.60;;;;;;;-4.70;82.07;99451.34;105700;1254;61777;-26
2023/01/12 06:36:24;;;;;;;9.20;5.20;;;;;;;-4.89;82.55;99460.55;105800;1254;61764;-26
2023/01/12 06:38:50;;;;;;;12.60;5.40;;;;;;;-4.91;83.27;99461.77;105560;1254;75175;-26
2023/01/12 06:44:03;;;;;;;10.00;5.40;;;;;;;-4.02;81.30;99465.52;105665;1254;74464;-26
2023/01/12 06:46:30;;;;;;;5.10;4.10;;;;;;;-4.18;80.82;99465.06;105687;1254;61138;-26
2023/01/12 06:48:57;;;;;;;11.30;5.70;;;;;;;-4.38;81.16;99464.98;105681;1254;61650;-26
2023/01/12 06:51:25;;;;;;;9.90;3.80;;;;;;;-4.64;81.86;99463.48;105665;1254;75329;-26
2023/01/12 06:53:52;;;;;;;4.50;3.10;;;;;;;-4.84;82.70;99470.14;105805;1257;75835;-26
2023/01/12 06:56:20;;;;;;;8.20;3.80;;;;;;;-4.57;82.95;99465.41;105625;1254;74399;-26
2023/01/12 06:58:47;;;;;;;9.90;4.90;;;;;;;-3.94;81.59;99459.11;105550;1258;61824;-26
2023/01/12 07:01:14;;;;;;;8.90;5.00;;;;;;;-3.81;80.29;99466.04;105659;1259;63298;-26
2023/01/12 07:03:41;;;;;;;9.00;4.80;;;;;;;-3.99;80.36;99463.77;105678;1259;76289;-26
2023/01/12 07:06:08;;;;;;;10.50;5.90;;;;;;;-4.22;80.67;99471.89;105893;1254;75866;-26
2023/01/12 07:08:35;;;;;;;10.70;5.90;;;;;;;-4.49;81.61;99472.27;105673;1254;75181;-26
2023/01/12 07:11:03;;;;;;;9.40;5.00;;;;;;;-4.65;82.37;99466.89;105707;1254;62681;-26
2023/01/12 07:13:30;;;;;;;5.20;3.50;;;;;;;-4.20;82.09;99460.51;105618;1261;62756;-26
2023/01/12 07:15:58;;;;;;;11.70;4.90;;;;;;;-3.86;81.05;99464.92;105699;1259;76346;-27
2023/01/12 07:18:26;;;;;;;7.10;4.40;;;;;;;-3.82;80.42;99475.20;105679;1254;76852;-25
2023/01/12 07:20:53;;;;;;;9.40;4.80;;;;;;;-3.97;80.68;99474.24;105614;1254;72863;-26
2023/01/12 07:23:20;;;;;;;8.30;5.20;;;;;;;-4.16;81.16;99480.30;105604;1258;62098;-26
2023/01/12 07:25:47;;;;;;;7.40;5.10;;;;;;;-4.34;81.53;99478.51;105651;1254;61728;-26
2023/01/12 07:28:14;;;;;;;9.50;4.80;;;;;;;-4.19;81.83;99466.25;105449;1254;76342;-26
2023/01/12 07:30:42;;;;;;;10.30;5.80;;;;;;;-3.69;81.01;99460.73;105482;1260;76742;-27
2023/01/12 07:33:11;;;;;;;10.20;5.30;;;;;;;-3.57;80.39;99455.13;105619;1254;75168;-26
2023/01/12 07:35:39;;;;;;;9.00;4.70;;;;;;;-3.69;80.27;99450.22;105506;1261;61177;-26
2023/01/12 07:38:06;;;;;;;12.00;5.60;;;;;;;-3.85;80.68;99454.21;105623;1254;62513;-26
2023/01/12 07:40:33;;;;;;;12.20;5.20;;;;;;;-4.00;81.05;99456.50;105517;1253;76508;-26
2023/01/12 07:43:05;;;;;;;6.70;3.60;;;;;;;-4.04;81.45;99450.10;105489;1259;76911;-28
2023/01/12 07:45:32;;;;;;;8.40;5.20;;;;;;;-3.52;80.65;99451.98;105363;1262;74954;-26
2023/01/12 07:47:59;;;;;;;8.40;5.80;;;;;;;-3.22;79.77;99456.89;105621;1253;61978;-26
2023/01/12 07:50:27;;;;;;;9.70;4.80;;;;;;;-3.29;79.35;99454.80;105640;1254;61831;-26
2023/01/12 07:52:54;;;;;;;10.30;5.80;;;;;;;-3.52;79.70;99453.85;105868;1256;75999;-25
2023/01/12 07:55:21;;;;;;;9.20;4.60;;;;;;;-3.82;80.17;99451.11;105674;1259;75410;-25
2023/01/12 07:57:56;;;;;;;9.60;5.70;;;;;;;-4.06;81.03;99449.46;105644;1254;73850;-26
2023/01/12 08:00:23;;;;;;;10.00;5.10;;;;;;;-4.00;81.81;99449.52;105497;1262;63671;-25
2023/01/12 08:02:53;;;;;;;8.10;4.90;;;;;;;-3.42;81.14;99446.54;105598;1257;62937;-28
2023/01/12 08:05:21;;;;;;;8.90;5.30;;;;;;;-3.26;79.87;99449.31;105449;1259;75225;-27
2023/01/12 08:07:48;;;;;;;9.70;5.00;;;;;;;-3.35;79.92;99455.75;105645;1260;76773;-30
2023/01/12 08:10:15;;;;;;;8.70;5.20;;;;;;;-3.57;80.41;99454.28;105587;1254;73858;-28
2023/01/12 08:12:42;;;;;;;12.90;6.00;;;;;;;-3.77;80.62;99451.04;105580;1259;61120;-30
2023/01/12 08:15:10;;;;;;;8.00;5.00;;;;;;;-3.92;81.13;99454.50;105387;1259;62799;-25
2023/01/12 08:17:50;;;;;;;10.40;4.70;;;;;;;-3.37;81.15;99455.79;105473;1254;76235;-24
2023/01/12 08:20:23;;;;;;;9.40;5.60;;;;;;;-2.87;79.22;99449.59;105462;1253;76810;-24
2023/01/12 08:22:51;;;;;;;6.30;3.90;;;;;;;-2.89;78.43;99447.92;105668;1255;75161;-24
2023/01/12 08:25:26;;;;;;;11.40;6.30;;;;;;;-3.09;78.55;99451.89;105689;1254;61224;-25
2023/01/12 08:27:55;;;;;;;11.10;5.90;;;;;;;-3.34;79.20;99449.14;105568;1259;62515;-25
2023/01/12 08:30:24;;;;;;;11.40;6.20;;;;;;;-3.61;79.68;99447.90;105687;1262;76095;-25
2023/01/12 08:32:51;;;;;;;9.10;5.40;;;;;;;-3.82;80.41;99447.21;105567;1254;76751;-25
2023/01/12 08:35:19;;;;;;;9.20;4.70;;;;;;;-3.56;81.05;99442.54;105678;1259;74109;-25
2023/01/12 08:37:46;;;;;;;13.40;5.40;;;;;;;-2.90;79.66;99441.48;105663;1254;62081;-25
2023/01/12 08:40:14;;;;;;;7.30;4.30;;;;;;;-2.78;78.06;99443.13;105638;1254;62419;-25
2023/01/12 08:42:41;;;;;;;11.90;5.60;;;;;;;-2.97;78.19;99442.48;105621;1259;75332;-24
2023/01/12 08:45:09;;;;;;;8.50;4.00;;;;;;;-3.22;78.33;99445.34;105701;1254;76471;-25
2023/01/12 08:47:39;;;;;;;11.20;5.00;;;;;;;-3.46;79.51;99440.51;105543;1254;74080;-26
2023/01/12 08:50:07;;;;;;;9.40;5.30;;;;;;;-3.72;80.00;99443.84;105676;1254;61608;-25
2023/01/12 08:52:34;;;;;;;14.00;5.10;;;;;;;-3.74;80.89;99446.73;105558;1259;61381;-25
2023/01/12 08:55:02;;;;;;;10.50;6.10;;;;;;;-3.17;80.05;99448.30;105411;1254;76362;-25
2023/01/12 08:57:29;;;;;;;9.00;5.20;;;;;;;-2.96;78.80;99450.63;105722;1254;75818;-25
2023/01/12 08:59:56;;;;;;;9.40;4.20;;;;;;;-3.04;78.82;99460.13;105638;1254;75115;-25
2023/01/12 09:02:25;;;;;;;9.30;4.80;;;;;;;-3.24;79.07;99453.70;105441;1259;62324;-25
2023/01/12 09:04:53;;;;;;;9.70;5.80;;;;;;;-3.45;79.53;99455.27;105672;1258;62163;-25
2023/01/12 09:07:20;;;;;;;8.60;4.50;;;;;;;-3.70;80.14;99453.81;105660;1259;76278;-25
2023/01/12 09:09:47;;;;;;;8.80;4.80;;;;;;;-3.66;81.09;99455.45;105566;1254;75674;-25
2023/01/12 09:12:14;;;;;;;9.30;5.50;;;;;;;-3.14;80.26;99458.77;105548;1260;75251;-25
2023/01/12 09:14:41;;;;;;;9.80;5.00;;;;;;;-2.91;79.23;99459.02;105472;1259;61116;-27
2023/01/12 09:17:08;;;;;;;13.40;6.70;;;;;;;-3.02;78.98;99462.30;105714;1254;61630;-26
2023/01/12 09:19:35;;;;;;;8.80;4.90;;;;;;;-3.32;79.53;99460.80;105644;1259;76344;-26
2023/01/12 09:22:02;;;;;;;11.70;6.30;;;;;;;-3.57;80.44;99455.63;105659;1253;76858;-26
2023/01/12 09:24:29;;;;;;;9.90;5.60;;;;;;;-3.71;80.95;99459.26;105682;1260;75200;-25
2023/01/12 09:26:57;;;;;;;7.60;3.80;;;;;;;-3.33;80.92;99458.78;105642;1254;61889;-26
2023/01/12 09:29:24;;;;;;;12.60;6.10;;;;;;;-2.98;79.96;99459.67;105576;1259;61634;-26
2023/01/12 09:31:51;;;;;;;8.20;5.40;;;;;;;-3.12;79.85;99461.63;105561;1259;76351;-26
2023/01/12 09:34:18;;;;;;;9.80;4.70;;;;;;;-3.21;79.83;99463.83;105669;1254;74580;-26
2023/01/12 09:36:45;;;;;;;8.40;4.60;;;;;;;-3.48;80.53;99464.97;105822;1253;75007;-26
2023/01/12 09:39:14;;;;;;;9.70;4.90;;;;;;;-3.68;81.37;99477.70;105620;1254;61150;-26
2023/01/12 09:47:39;;;;;;;11.10;6.50;;;;;;;-3.31;80.37;99469.27;105674;1260;76698;-26
2023/01/12 09:50:11;;;;;;;8.10;5.80;;;;;;;-3.57;80.93;99463.95;105636;1254;74046;-27
2023/01/12 09:52:59;;;;;;;6.80;4.20;;;;;;;-3.82;81.64;99468.27;105685;1259;61195;-26
2023/01/12 09:56:21;;;;;;;7.70;4.70;;;;;;;-3.74;82.29;99473.91;105642;1254;63040;-25
2023/01/12 09:59:14;;;;;;;4.60;2.90;;;;;;;-3.33;80.74;99464.91;105236;1259;75325;-26
2023/01/12 10:01:44;;;;;;;6.10;4.00;;;;;;;-3.34;80.36;99469.83;105688;1254;76838;-26
2023/01/12 10:04:11;;;;;;;9.40;6.00;;;;;;;-3.47;80.94;99470.73;105649;1262;74146;-25
2023/01/12 10:06:38;;;;;;;4.70;3.60;;;;;;;-3.83;81.79;99476.41;105623;1259;61675;-25
2023/01/12 10:09:08;;;;;;;9.20;4.70;;;;;;;-3.87;82.90;99481.05;105672;1259;62652;-25
2023/01/12 10:11:57;;;;;;;9.10;4.50;;;;;;;-3.31;82.09;99484.05;105462;1254;74942;-25
2023/01/12 10:14:27;;;;;;;9.40;5.70;;;;;;;-3.03;80.69;99478.27;105473;1254;76624;-25
2023/01/12 10:16:57;;;;;;;6.10;3.00;;;;;;;-3.11;80.10;99481.30;105553;1254;74082;-25
2023/01/12 10:19:50;;;;;;;11.80;6.40;;;;;;;-3.38;80.95;99477.05;105831;1256;61784;-26
2023/01/12 10:22:35;;;;;;;8.20;4.90;;;;;;;-3.63;81.50;99477.47;105854;1256;61474;-25
2023/01/12 10:25:15;;;;;;;9.10;5.40;;;;;;;-3.44;82.07;99475.27;105771;1254;75138;-25
2023/01/12 10:27:43;;;;;;;7.20;5.10;;;;;;;-3.19;81.04;99475.02;105719;1254;75724;-25
2023/01/12 10:30:19;;;;;;;6.90;4.70;;;;;;;-3.39;81.27;99470.09;105425;1254;73873;-26
2023/01/12 10:32:46;;;;;;;5.10;3.40;;;;;;;-3.56;82.19;99465.46;105694;1259;61666;-26
2023/01/12 10:35:18;;;;;;;6.70;3.70;;;;;;;-3.72;83.13;99460.30;105606;1254;61199;-25
2023/01/12 10:37:51;;;;;;;7.90;3.80;;;;;;;-3.38;83.19;99458.02;105504;1267;75258;-25
2023/01/12 10:40:31;;;;;;;8.30;3.80;;;;;;;-2.54;81.70;99461.17;105437;1262;77088;-27
2023/01/12 10:43:21;;;;;;;6.00;3.90;;;;;;;-2.40;79.59;99459.52;105468;1259;75243;-26
2023/01/12 10:46:03;;;;;;;6.60;4.40;;;;;;;-2.80;80.13;99456.60;105367;1262;61177;-27
2023/01/12 10:48:31;;;;;;;7.60;4.10;;;;;;;-3.07;81.13;99450.16;105615;1258;62760;-27
2023/01/12 10:50:59;;;;;;;6.30;3.80;;;;;;;-3.20;81.89;99445.13;105672;1258;75389;-27
2023/01/12 10:53:56;;;;;;;9.90;4.00;;;;;;;-3.32;82.67;99439.73;105730;1260;76824;-24
2023/01/12 10:56:34;;;;;;;9.20;5.20;;;;;;;-2.66;81.16;99430.64;105482;1254;75149;-24
2023/01/12 10:59:04;;;;;;;12.20;5.30;;;;;;;-2.60;80.14;99419.47;105512;1254;61966;-24
2023/01/12 11:01:51;;;;;;;10.00;5.00;;;;;;;-2.56;80.43;99412.23;105642;1262;62634;-24
2023/01/12 11:04:20;;;;;;;7.60;5.20;;;;;;;-2.79;80.50;99405.77;105425;1262;76026;-24
2023/01/12 11:07:02;;;;;;;3.40;3.10;;;;;;;-2.95;81.03;99404.39;105503;1261;73396;-24
2023/01/12 11:09:31;;;;;;;9.30;4.80;;;;;;;-2.67;81.14;99400.76;105511;1259;73903;-24
2023/01/12 11:12:00;;;;;;;9.90;5.00;;;;;;;-2.20;79.81;99396.15;105587;1254;61161;-24
2023/01/12 11:14:36;;;;;;;7.70;4.40;;;;;;;-2.15;79.28;99391.60;105320;1254;61565;-24
2023/01/12 11:17:50;;;;;;;5.70;3.30;;;;;;;-2.28;79.46;99391.73;105696;1260;76281;-24
2023/01/12 11:20:23;;;;;;;7.30;4.30;;;;;;;-2.41;79.74;99390.84;105692;1258;75877;-24
2023/01/12 11:22:51;;;;;;;7.70;4.20;;;;;;;-2.68;80.40;99392.95;105651;1260;73791;-24
2023/01/12 11:25:25;;;;;;;9.40;4.90;;;;;;;-2.52;80.63;99394.80;105555;1259;62331;-24
2023/01/12 11:28:16;;;;;;;5.60;3.20;;;;;;;-1.98;79.96;99394.75;105697;1260;62927;-24
2023/01/12 11:31:07;;;;;;;14.10;6.40;;;;;;;-1.99;78.82;99389.84;105915;1264;75356;-25
2023/01/12 11:33:46;;;;;;;5.30;4.10;;;;;;;-2.16;79.50;99391.09;105736;1260;76921;-24
2023/01/12 11:36:33;;;;;;;7.60;4.70;;;;;;;-2.45;80.20;99382.08;105674;1254;73776;-24
2023/01/12 11:39:10;;;;;;;7.40;3.20;;;;;;;-2.65;80.68;99370.45;105703;1260;62192;-26
2023/01/12 11:43:47;;;;;;;7.10;4.00;;;;;;;-2.46;81.44;99365.94;105633;1259;62506;-25
2023/01/12 11:44:54;;;;;;;11.60;5.60;;;;;;;-1.70;80.22;99364.29;105695;1254;76519;-25
2023/01/12 11:47:27;;;;;;;10.40;4.90;;;;;;;-1.64;78.68;99369.38;105714;1254;76888;-26
2023/01/12 11:50:25;;;;;;;8.70;5.10;;;;;;;-1.93;79.16;99367.58;105717;1261;75077;-26
2023/01/12 11:52:54;;;;;;;11.60;6.70;;;;;;;-2.19;80.20;99372.13;105694;1269;61386;-26
2023/01/12 11:55:40;;;;;;;6.20;4.70;;;;;;;-2.45;80.52;99374.10;105709;1259;61163;-27
2023/01/12 11:58:19;;;;;;;9.40;4.90;;;;;;;-2.18;81.10;99372.94;105683;1260;76415;-25
2023/01/12 12:01:33;;;;;;;6.80;4.20;;;;;;;-1.59;79.66;99368.42;105670;1261;74766;-25
2023/01/12 12:04:02;;;;;;;8.80;5.10;;;;;;;-1.55;78.80;99360.83;105533;1254;73170;-27
2023/01/12 12:06:59;;;;;;;8.90;4.80;;;;;;;-1.76;78.93;99348.77;105633;1254;62260;-26
2023/01/12 12:09:57;;;;;;;10.50;5.90;;;;;;;-1.96;79.53;99340.60;105395;1260;61773;-26
2023/01/12 12:12:43;;;;;;;11.70;6.20;;;;;;;-2.18;80.69;99353.89;105658;1254;75313;-26
2023/01/12 12:15:32;;;;;;;6.70;4.60;;;;;;;-2.05;81.12;99362.42;105568;1259;75860;-26
2023/01/12 12:18:03;;;;;;;8.50;5.50;;;;;;;-1.46;79.56;99366.71;105550;1260;75111;-25